createdAt,value
2017-12-27T00:00:15.029Z,93.30
2017-12-27T00:00:53.116Z,93.40
2017-12-27T00:01:31.406Z,93.30
2017-12-27T00:02:09.720Z,93.40
2017-12-27T00:02:47.837Z,93.40
2017-12-27T00:03:26.107Z,93.30
2017-12-27T00:04:04.300Z,93.00
2017-12-27T00:04:42.554Z,92.80
2017-12-27T00:05:20.698Z,93.10
2017-12-27T00:05:59.521Z,93.40
2017-12-27T00:06:37.632Z,93.40
2017-12-27T00:07:15.834Z,93.30
2017-12-27T00:07:54.021Z,93.30
2017-12-27T00:09:45.822Z,93.30
2017-12-27T00:10:23.872Z,93.60
2017-12-27T00:11:02.086Z,93.60
2017-12-27T00:11:40.291Z,93.40
2017-12-27T00:12:20.245Z,93.30
2017-12-27T00:12:58.480Z,93.40
2017-12-27T00:13:36.841Z,93.30
2017-12-27T00:14:15.112Z,93.20
2017-12-27T00:14:53.335Z,93.30
2017-12-27T00:15:31.559Z,93.40
2017-12-27T00:16:09.747Z,93.30
2017-12-27T00:16:48.007Z,93.30
2017-12-27T00:17:26.355Z,93.30
2017-12-27T00:18:04.501Z,93.30
2017-12-27T00:18:42.565Z,93.20
2017-12-27T00:19:20.952Z,93.20
2017-12-27T00:19:59.088Z,93.30
2017-12-27T00:20:38.828Z,93.40
2017-12-27T00:21:17.567Z,93.30
2017-12-27T00:21:55.643Z,93.30
2017-12-27T00:22:34.645Z,93.30
2017-12-27T00:23:12.744Z,93.50
2017-12-27T00:23:51.028Z,93.50
2017-12-27T00:24:30.666Z,93.40
2017-12-27T00:25:08.941Z,93.30
2017-12-27T00:26:03.983Z,93.30
2017-12-27T00:26:42.212Z,93.40
2017-12-27T00:27:20.347Z,93.40
2017-12-27T00:27:58.371Z,93.50
2017-12-27T00:28:36.466Z,93.20
2017-12-27T00:29:15.735Z,93.20
2017-12-27T00:29:53.982Z,93.10
2017-12-27T00:30:32.032Z,93.00
2017-12-27T00:31:19.424Z,93.30
2017-12-27T00:31:51.471Z,93.20
2017-12-27T00:32:23.616Z,93.10
2017-12-27T00:32:56.250Z,93.00
2017-12-27T00:33:28.908Z,93.10
2017-12-27T00:34:01.418Z,93.20
2017-12-27T00:34:33.996Z,93.30
2017-12-27T00:35:09.311Z,93.20
2017-12-27T00:35:42.060Z,93.30
2017-12-27T00:36:14.641Z,93.20
2017-12-27T00:36:47.148Z,93.20
2017-12-27T00:37:20.456Z,93.20
2017-12-27T00:37:53.124Z,93.20
2017-12-27T00:38:25.732Z,93.10
2017-12-27T00:38:58.331Z,93.10
2017-12-27T00:39:30.866Z,93.10
2017-12-27T00:40:03.454Z,93.10
2017-12-27T00:40:36.759Z,93.20
2017-12-27T00:41:10.044Z,93.10
2017-12-27T00:41:42.629Z,93.00
2017-12-27T00:42:16.010Z,93.30
2017-12-27T00:42:48.607Z,93.30
2017-12-27T00:43:21.280Z,93.40
2017-12-27T00:43:53.784Z,93.40
2017-12-27T00:44:26.397Z,93.30
2017-12-27T00:45:02.625Z,93.30
2017-12-27T00:45:35.351Z,93.30
2017-12-27T00:46:07.915Z,93.30
2017-12-27T00:46:40.657Z,93.20
2017-12-27T00:47:13.247Z,93.20
2017-12-27T00:47:45.812Z,93.10
2017-12-27T00:48:18.341Z,93.10
2017-12-27T00:48:51.071Z,93.20
2017-12-27T00:49:23.830Z,93.20
2017-12-27T00:49:56.361Z,93.20
2017-12-27T00:50:32.109Z,93.20
2017-12-27T00:51:05.535Z,93.30
2017-12-27T00:51:38.176Z,93.20
2017-12-27T00:52:10.726Z,93.20
2017-12-27T00:52:43.286Z,93.20
2017-12-27T00:53:15.962Z,93.20
2017-12-27T00:53:48.486Z,93.20
2017-12-27T00:54:21.081Z,93.40
2017-12-27T00:54:53.669Z,93.50
2017-12-27T00:55:27.018Z,93.60
2017-12-27T00:56:00.309Z,93.20
2017-12-27T00:56:32.965Z,93.10
2017-12-27T00:57:05.478Z,93.00
2017-12-27T00:57:38.037Z,93.10
2017-12-27T00:58:10.611Z,93.00
2017-12-27T00:58:43.142Z,93.00
2017-12-27T00:59:15.675Z,93.00
2017-12-27T00:59:49.106Z,93.10
2017-12-27T01:00:21.632Z,93.10
2017-12-27T01:00:54.889Z,93.10
2017-12-27T01:01:27.405Z,93.00
2017-12-27T01:02:00.095Z,92.90
2017-12-27T01:02:33.632Z,92.80
2017-12-27T01:03:07.906Z,93.00
2017-12-27T01:03:40.506Z,93.00
2017-12-27T01:04:13.776Z,93.30
2017-12-27T01:04:46.381Z,93.30
2017-12-27T01:05:19.033Z,93.50
2017-12-27T01:05:51.617Z,93.60
2017-12-27T01:06:24.188Z,93.60
2017-12-27T01:06:56.689Z,93.70
2017-12-27T01:07:29.950Z,94.20
2017-12-27T01:08:02.788Z,93.80
2017-12-27T01:08:35.523Z,93.90
2017-12-27T01:09:10.334Z,94.00
2017-12-27T01:09:43.801Z,93.90
2017-12-27T01:10:16.359Z,93.90
2017-12-27T01:10:48.865Z,93.90
2017-12-27T01:11:21.366Z,93.80
2017-12-27T01:11:54.700Z,93.90
2017-12-27T01:12:27.964Z,93.60
2017-12-27T01:13:00.575Z,93.60
2017-12-27T01:13:33.175Z,93.70
2017-12-27T01:14:05.906Z,93.80
2017-12-27T01:14:38.455Z,93.80
2017-12-27T01:15:11.109Z,93.70
2017-12-27T01:15:43.600Z,93.60
2017-12-27T01:16:16.167Z,93.60
2017-12-27T01:16:48.702Z,93.70
2017-12-27T01:17:21.314Z,93.60
2017-12-27T01:17:53.856Z,93.60
2017-12-27T01:18:26.349Z,93.70
2017-12-27T01:18:58.935Z,93.80
2017-12-27T01:19:31.741Z,93.80
2017-12-27T01:20:04.220Z,93.80
2017-12-27T01:20:36.725Z,93.70
2017-12-27T01:21:09.252Z,93.70
2017-12-27T01:21:41.752Z,93.90
2017-12-27T01:22:14.254Z,93.80
2017-12-27T01:22:46.777Z,93.70
2017-12-27T01:23:19.352Z,93.70
2017-12-27T01:23:51.845Z,93.70
2017-12-27T01:24:24.448Z,93.70
2017-12-27T01:24:56.997Z,93.70
2017-12-27T01:25:29.494Z,93.70
2017-12-27T01:26:02.075Z,93.70
2017-12-27T01:26:34.599Z,93.70
2017-12-27T01:27:07.198Z,93.80
2017-12-27T01:27:39.859Z,93.80
2017-12-27T01:28:12.370Z,93.70
2017-12-27T01:28:44.876Z,93.80
2017-12-27T01:29:17.375Z,93.70
2017-12-27T01:29:49.888Z,93.40
2017-12-27T01:30:22.400Z,93.40
2017-12-27T01:30:54.897Z,93.40
2017-12-27T01:31:27.427Z,93.50
2017-12-27T01:32:00.038Z,93.60
2017-12-27T01:32:32.554Z,93.50
2017-12-27T01:33:05.103Z,93.60
2017-12-27T01:33:37.598Z,93.70
2017-12-27T01:34:10.144Z,93.80
2017-12-27T01:34:42.675Z,93.70
2017-12-27T01:35:15.197Z,93.70
2017-12-27T01:35:47.766Z,93.70
2017-12-27T01:36:20.401Z,93.80
2017-12-27T01:36:53.068Z,94.10
2017-12-27T01:37:25.814Z,94.00
2017-12-27T01:37:59.166Z,93.90
2017-12-27T01:38:31.834Z,93.90
2017-12-27T01:39:04.529Z,93.80
2017-12-27T01:39:38.950Z,93.90
2017-12-27T01:40:12.487Z,94.00
2017-12-27T01:40:46.854Z,94.00
2017-12-27T01:41:19.409Z,93.90
2017-12-27T01:41:51.935Z,93.80
2017-12-27T01:42:24.552Z,93.80
2017-12-27T01:42:57.201Z,93.80
2017-12-27T01:43:29.818Z,93.80
2017-12-27T01:44:02.314Z,93.90
2017-12-27T01:44:34.880Z,94.00
2017-12-27T01:45:07.426Z,94.10
2017-12-27T01:45:39.983Z,94.10
2017-12-27T01:46:12.542Z,94.00
2017-12-27T01:46:45.177Z,94.10
2017-12-27T01:47:17.706Z,94.10
2017-12-27T01:47:51.088Z,94.20
2017-12-27T01:48:24.489Z,94.20
2017-12-27T01:48:57.194Z,94.20
2017-12-27T01:49:29.714Z,94.20
2017-12-27T01:50:02.313Z,94.00
2017-12-27T01:50:34.962Z,93.90
2017-12-27T01:51:07.673Z,94.00
2017-12-27T01:51:40.259Z,94.20
2017-12-27T01:52:14.760Z,94.20
2017-12-27T01:52:48.457Z,94.10
2017-12-27T01:53:21.055Z,94.00
2017-12-27T01:53:53.715Z,93.90
2017-12-27T01:54:26.351Z,93.90
2017-12-27T01:54:59.048Z,94.00
2017-12-27T01:55:33.076Z,94.00
2017-12-27T01:56:05.883Z,94.00
2017-12-27T01:56:38.400Z,94.00
2017-12-27T01:57:10.949Z,94.10
2017-12-27T01:57:43.707Z,94.10
2017-12-27T01:58:16.264Z,94.10
2017-12-27T01:58:48.921Z,94.10
2017-12-27T01:59:21.519Z,94.20
2017-12-27T01:59:54.078Z,94.20
2017-12-27T02:00:26.635Z,94.10
2017-12-27T02:00:59.201Z,94.20
2017-12-27T02:01:31.844Z,94.30
2017-12-27T02:02:06.170Z,94.30
2017-12-27T02:02:38.734Z,94.20
2017-12-27T02:03:11.389Z,94.20
2017-12-27T02:03:44.985Z,93.90
2017-12-27T02:04:17.637Z,93.90
2017-12-27T02:04:51.242Z,94.00
2017-12-27T02:05:23.813Z,94.00
2017-12-27T02:05:56.474Z,94.10
2017-12-27T02:06:29.132Z,94.20
2017-12-27T02:07:01.703Z,94.20
2017-12-27T02:07:34.218Z,94.30
2017-12-27T02:08:06.935Z,94.20
2017-12-27T02:08:39.535Z,94.10
2017-12-27T02:09:12.102Z,94.10
2017-12-27T02:09:44.726Z,94.00
2017-12-27T02:10:17.657Z,94.00
2017-12-27T02:10:50.161Z,94.10
2017-12-27T02:11:23.601Z,94.20
2017-12-27T02:11:56.109Z,94.30
2017-12-27T02:12:28.629Z,94.30
2017-12-27T02:13:01.274Z,94.30
2017-12-27T02:13:33.841Z,94.30
2017-12-27T02:14:06.446Z,94.20
2017-12-27T02:14:39.136Z,94.20
2017-12-27T02:15:11.907Z,94.20
2017-12-27T02:21:23.617Z,94.20
2017-12-27T02:21:56.246Z,94.40
2017-12-27T02:22:28.960Z,94.40
2017-12-27T02:23:01.481Z,94.20
2017-12-27T02:23:34.165Z,94.40
2017-12-27T02:24:06.841Z,94.40
2017-12-27T02:24:39.414Z,94.30
2017-12-27T02:25:12.661Z,94.40
2017-12-27T02:25:45.320Z,94.40
2017-12-27T02:26:17.957Z,94.40
2017-12-27T02:26:50.493Z,94.50
2017-12-27T02:27:23.000Z,94.40
2017-12-27T02:27:55.533Z,94.40
2017-12-27T02:28:28.060Z,94.40
2017-12-27T02:29:01.438Z,94.40
2017-12-27T02:29:35.441Z,94.40
2017-12-27T02:30:08.102Z,94.40
2017-12-27T02:30:42.041Z,94.40
2017-12-27T02:31:14.682Z,94.40
2017-12-27T02:31:47.276Z,94.30
2017-12-27T02:32:19.859Z,94.30
2017-12-27T02:32:52.424Z,94.40
2017-12-27T02:33:25.033Z,94.40
2017-12-27T02:33:58.334Z,94.50
2017-12-27T02:34:30.944Z,94.40
2017-12-27T02:35:03.473Z,94.30
2017-12-27T02:35:37.055Z,94.30
2017-12-27T02:36:09.637Z,94.40
2017-12-27T02:36:42.340Z,94.50
2017-12-27T02:37:15.019Z,94.60
2017-12-27T02:37:47.884Z,94.50
2017-12-27T02:38:32.156Z,94.50
2017-12-27T02:39:05.912Z,94.50
2017-12-27T02:41:01.738Z,94.90
2017-12-27T02:41:34.311Z,95.00
2017-12-27T02:42:07.058Z,95.00
2017-12-27T02:42:39.776Z,94.90
2017-12-27T02:43:12.377Z,94.80
2017-12-27T02:43:44.929Z,94.70
2017-12-27T02:44:17.593Z,94.80
2017-12-27T02:44:50.244Z,94.80
2017-12-27T02:45:22.793Z,94.80
2017-12-27T02:45:55.380Z,94.90
2017-12-27T02:46:28.024Z,94.90
2017-12-27T02:47:00.943Z,94.90
2017-12-27T02:47:33.571Z,94.90
2017-12-27T02:48:07.847Z,94.90
2017-12-27T02:48:40.417Z,94.90
2017-12-27T02:49:13.174Z,95.00
2017-12-27T02:49:46.434Z,95.20
2017-12-27T02:50:18.944Z,95.00
2017-12-27T02:50:54.639Z,95.00
2017-12-27T02:51:27.316Z,95.00
2017-12-27T02:52:00.071Z,95.00
2017-12-27T02:52:34.115Z,95.00
2017-12-27T02:53:06.696Z,95.10
2017-12-27T02:53:39.258Z,95.10
2017-12-27T02:54:11.753Z,95.10
2017-12-27T02:54:44.480Z,95.00
2017-12-27T02:55:16.978Z,95.00
2017-12-27T02:55:49.605Z,95.10
2017-12-27T02:56:22.234Z,95.20
2017-12-27T02:56:54.726Z,95.10
2017-12-27T02:57:27.304Z,95.10
2017-12-27T02:57:59.909Z,95.00
2017-12-27T02:58:32.404Z,95.00
2017-12-27T02:59:04.985Z,95.00
2017-12-27T02:59:37.507Z,95.10
2017-12-27T03:00:10.066Z,95.10
2017-12-27T03:00:42.753Z,95.10
2017-12-27T03:01:15.379Z,95.10
2017-12-27T03:01:47.895Z,95.10
2017-12-27T03:02:20.538Z,95.10
2017-12-27T03:02:53.207Z,95.20
2017-12-27T03:03:25.845Z,95.10
2017-12-27T03:03:58.408Z,95.20
2017-12-27T03:04:30.913Z,95.10
2017-12-27T03:05:03.581Z,95.10
2017-12-27T03:05:36.084Z,95.10
2017-12-27T03:06:09.886Z,95.20
2017-12-27T03:06:42.484Z,95.10
2017-12-27T03:07:15.042Z,95.00
2017-12-27T03:07:47.563Z,94.90
2017-12-27T03:08:20.132Z,94.90
2017-12-27T03:08:52.800Z,95.00
2017-12-27T03:09:25.313Z,95.00
2017-12-27T03:09:57.885Z,95.00
2017-12-27T03:10:30.467Z,95.00
2017-12-27T03:11:03.066Z,95.00
2017-12-27T03:11:35.701Z,95.00
2017-12-27T03:12:08.237Z,95.10
2017-12-27T03:12:41.536Z,95.20
2017-12-27T03:13:14.301Z,95.10
2017-12-27T03:13:47.596Z,95.10
2017-12-27T03:14:20.117Z,95.10
2017-12-27T03:14:52.733Z,94.80
2017-12-27T03:15:25.234Z,94.70
2017-12-27T03:15:57.785Z,94.80
2017-12-27T03:16:30.522Z,94.80
2017-12-27T03:17:03.109Z,94.90
2017-12-27T03:17:35.615Z,95.00
2017-12-27T03:18:08.168Z,95.00
2017-12-27T03:18:40.791Z,95.20
2017-12-27T03:19:13.392Z,95.00
2017-12-27T03:19:46.005Z,95.00
2017-12-27T03:20:18.784Z,95.10
2017-12-27T03:20:51.297Z,95.10
2017-12-27T03:21:23.925Z,95.10
2017-12-27T03:21:56.431Z,95.00
2017-12-27T03:22:28.956Z,94.90
2017-12-27T03:23:01.465Z,94.80
2017-12-27T03:23:34.140Z,94.70
2017-12-27T03:24:06.623Z,94.80
2017-12-27T03:24:39.206Z,94.90
2017-12-27T03:25:11.836Z,95.00
2017-12-27T03:25:45.245Z,94.90
2017-12-27T03:26:17.746Z,94.90
2017-12-27T03:26:51.113Z,94.80
2017-12-27T03:27:23.618Z,94.90
2017-12-27T03:27:56.136Z,94.90
2017-12-27T03:28:28.837Z,94.80
2017-12-27T03:29:01.440Z,94.90
2017-12-27T03:29:33.997Z,94.90
2017-12-27T03:30:06.517Z,94.90
2017-12-27T03:30:39.203Z,94.90
2017-12-27T03:31:11.695Z,94.60
2017-12-27T03:31:44.220Z,94.70
2017-12-27T03:32:16.944Z,94.70
2017-12-27T03:32:49.461Z,94.70
2017-12-27T03:33:22.058Z,94.80
2017-12-27T03:33:54.695Z,94.80
2017-12-27T03:34:27.223Z,94.70
2017-12-27T03:34:59.894Z,94.70
2017-12-27T03:35:32.405Z,94.70
2017-12-27T03:36:04.918Z,94.70
2017-12-27T03:36:37.511Z,94.60
2017-12-27T03:37:10.075Z,94.70
2017-12-27T03:37:42.594Z,94.70
2017-12-27T03:38:15.261Z,94.80
2017-12-27T03:38:47.764Z,94.80
2017-12-27T03:39:20.278Z,94.80
2017-12-27T03:39:52.857Z,94.80
2017-12-27T03:40:25.964Z,94.90
2017-12-27T03:40:58.501Z,94.90
2017-12-27T03:41:31.261Z,95.20
2017-12-27T03:42:03.984Z,94.90
2017-12-27T03:42:36.537Z,94.90
2017-12-27T03:43:09.158Z,95.00
2017-12-27T03:43:41.969Z,95.10
2017-12-27T03:44:14.470Z,95.00
2017-12-27T03:44:47.006Z,94.80
2017-12-27T03:45:20.529Z,94.70
2017-12-27T03:45:53.136Z,94.70
2017-12-27T03:46:25.739Z,94.70
2017-12-27T03:46:58.287Z,94.70
2017-12-27T03:47:30.934Z,94.70
2017-12-27T03:48:03.461Z,94.70
2017-12-27T03:48:36.012Z,94.80
2017-12-27T03:49:08.514Z,94.90
2017-12-27T03:49:41.055Z,94.90
2017-12-27T03:50:13.650Z,95.00
2017-12-27T03:50:46.145Z,94.90
2017-12-27T03:51:18.638Z,94.80
2017-12-27T03:51:51.189Z,94.90
2017-12-27T03:52:23.685Z,94.90
2017-12-27T03:52:56.262Z,94.80
2017-12-27T03:53:28.766Z,95.00
2017-12-27T03:54:01.266Z,94.70
2017-12-27T03:54:33.770Z,94.80
2017-12-27T03:55:07.071Z,94.80
2017-12-27T03:55:39.632Z,94.80
2017-12-27T03:56:12.206Z,94.40
2017-12-27T03:56:44.687Z,94.40
2017-12-27T03:57:17.212Z,94.50
2017-12-27T03:57:50.473Z,94.50
2017-12-27T03:58:22.973Z,94.50
2017-12-27T03:58:55.658Z,94.50
2017-12-27T03:59:28.193Z,94.50
2017-12-27T04:00:00.726Z,94.50
2017-12-27T04:00:33.257Z,94.50
2017-12-27T04:01:05.889Z,94.50
2017-12-27T04:01:38.400Z,94.60
2017-12-27T04:02:10.982Z,94.70
2017-12-27T04:02:43.548Z,94.70
2017-12-27T04:03:16.109Z,94.80
2017-12-27T04:03:48.642Z,94.60
2017-12-27T04:04:21.256Z,94.90
2017-12-27T04:04:54.601Z,94.80
2017-12-27T04:05:27.218Z,94.80
2017-12-27T04:05:59.905Z,94.70
2017-12-27T04:06:33.338Z,94.70
2017-12-27T04:07:05.865Z,94.80
2017-12-27T04:07:38.985Z,94.90
2017-12-27T04:08:12.762Z,94.90
2017-12-27T04:08:45.265Z,95.00
2017-12-27T04:09:17.804Z,95.00
2017-12-27T04:09:50.427Z,94.80
2017-12-27T04:10:22.930Z,94.80
2017-12-27T04:10:55.607Z,94.70
2017-12-27T04:11:28.897Z,94.60
2017-12-27T04:12:02.200Z,94.60
2017-12-27T04:12:34.719Z,94.60
2017-12-27T04:13:07.277Z,94.60
2017-12-27T04:13:39.879Z,94.70
2017-12-27T04:14:12.453Z,94.80
2017-12-27T04:14:44.943Z,95.00
2017-12-27T04:15:18.224Z,94.80
2017-12-27T04:15:50.749Z,94.80
2017-12-27T04:16:23.292Z,94.90
2017-12-27T04:16:55.848Z,94.90
2017-12-27T04:17:28.346Z,94.80
2017-12-27T04:18:01.016Z,94.80
2017-12-27T04:18:33.637Z,94.80
2017-12-27T04:19:06.210Z,94.70
2017-12-27T04:19:38.776Z,94.70
2017-12-27T04:20:12.098Z,94.80
2017-12-27T04:20:44.961Z,94.80
2017-12-27T04:21:17.601Z,94.90
2017-12-27T04:21:50.242Z,94.90
2017-12-27T04:22:23.077Z,94.90
2017-12-27T04:22:55.632Z,94.90
2017-12-27T04:23:28.189Z,94.90
2017-12-27T04:24:00.788Z,94.80
2017-12-27T04:24:33.336Z,94.90
2017-12-27T04:25:05.973Z,94.90
2017-12-27T04:25:38.514Z,94.80
2017-12-27T04:26:11.996Z,95.00
2017-12-27T04:26:44.557Z,94.80
2017-12-27T04:27:17.828Z,95.00
2017-12-27T04:27:51.181Z,94.50
2017-12-27T04:28:23.713Z,94.40
2017-12-27T04:28:56.331Z,94.50
2017-12-27T04:29:29.015Z,94.60
2017-12-27T04:30:01.923Z,94.60
2017-12-27T04:30:35.151Z,94.60
2017-12-27T04:31:07.698Z,94.60
2017-12-27T04:31:40.228Z,94.60
2017-12-27T04:32:12.729Z,94.60
2017-12-27T04:32:45.286Z,94.60
2017-12-27T04:33:17.781Z,94.50
2017-12-27T04:33:50.475Z,94.20
2017-12-27T04:34:22.972Z,94.20
2017-12-27T04:34:55.531Z,94.30
2017-12-27T04:35:28.212Z,94.40
2017-12-27T04:36:00.725Z,94.50
2017-12-27T04:36:33.235Z,94.50
2017-12-27T04:37:05.811Z,94.50
2017-12-27T04:37:38.511Z,94.50
2017-12-27T04:38:11.042Z,94.60
2017-12-27T04:38:43.552Z,94.60
2017-12-27T04:39:17.085Z,94.70
2017-12-27T04:39:49.624Z,94.90
2017-12-27T04:40:22.157Z,94.50
2017-12-27T04:40:54.692Z,94.30
2017-12-27T04:41:27.232Z,94.30
2017-12-27T04:41:59.793Z,94.40
2017-12-27T04:42:32.503Z,94.40
2017-12-27T04:43:05.189Z,94.50
2017-12-27T04:43:38.555Z,94.70
2017-12-27T04:44:11.184Z,94.90
2017-12-27T04:44:44.155Z,94.70
2017-12-27T04:45:16.796Z,94.60
2017-12-27T04:45:50.025Z,94.50
2017-12-27T04:46:22.570Z,94.50
2017-12-27T04:46:55.084Z,94.60
2017-12-27T04:47:27.639Z,94.50
2017-12-27T04:48:00.142Z,94.40
2017-12-27T04:48:32.648Z,94.50
2017-12-27T04:49:05.175Z,94.40
2017-12-27T04:49:37.707Z,94.30
2017-12-27T04:50:10.203Z,94.20
2017-12-27T04:50:42.762Z,94.10
2017-12-27T04:51:15.369Z,94.00
2017-12-27T04:51:47.969Z,94.00
2017-12-27T04:52:20.574Z,94.20
2017-12-27T04:52:53.081Z,94.30
2017-12-27T04:53:26.418Z,94.30
2017-12-27T04:53:58.952Z,94.30
2017-12-27T04:54:31.454Z,94.30
2017-12-27T04:55:03.952Z,94.40
2017-12-27T04:55:37.233Z,94.20
2017-12-27T04:56:10.516Z,94.20
2017-12-27T04:56:43.121Z,94.20
2017-12-27T04:57:15.663Z,94.30
2017-12-27T04:57:48.314Z,94.40
2017-12-27T04:58:20.891Z,94.50
2017-12-27T04:58:53.434Z,94.60
2017-12-27T04:59:26.052Z,94.60
2017-12-27T04:59:58.669Z,94.60
2017-12-27T05:00:31.984Z,94.70
2017-12-27T05:01:04.653Z,94.70
2017-12-27T05:01:37.160Z,94.50
2017-12-27T05:02:09.667Z,94.20
2017-12-27T05:02:42.308Z,94.10
2017-12-27T05:03:15.774Z,94.00
2017-12-27T05:03:48.274Z,94.00
2017-12-27T05:04:20.831Z,94.00
2017-12-27T05:04:53.473Z,94.00
2017-12-27T05:05:25.993Z,94.10
2017-12-27T05:05:58.566Z,94.20
2017-12-27T05:06:31.322Z,94.20
2017-12-27T05:07:03.965Z,94.30
2017-12-27T05:07:36.461Z,94.20
2017-12-27T05:08:09.071Z,94.30
2017-12-27T05:08:41.644Z,94.20
2017-12-27T05:09:14.188Z,94.30
2017-12-27T05:09:47.508Z,94.30
2017-12-27T05:10:20.118Z,94.20
2017-12-27T05:10:52.701Z,94.30
2017-12-27T05:11:26.086Z,94.30
2017-12-27T05:11:58.611Z,94.30
2017-12-27T05:12:31.130Z,94.30
2017-12-27T05:13:03.700Z,94.40
2017-12-27T05:13:36.399Z,94.30
2017-12-27T05:14:08.895Z,94.40
2017-12-27T05:14:41.425Z,94.50
2017-12-27T05:15:14.714Z,94.70
2017-12-27T05:15:47.276Z,94.70
2017-12-27T05:16:19.903Z,94.70
2017-12-27T05:16:52.468Z,94.70
2017-12-27T05:17:25.099Z,94.60
2017-12-27T05:17:57.606Z,94.50
2017-12-27T05:18:30.210Z,94.30
2017-12-27T05:19:02.755Z,94.20
2017-12-27T05:19:36.520Z,94.30
2017-12-27T05:20:09.065Z,94.30
2017-12-27T05:20:42.464Z,94.50
2017-12-27T05:21:15.232Z,94.50
2017-12-27T05:21:47.737Z,94.40
2017-12-27T05:22:20.368Z,94.50
2017-12-27T05:22:52.895Z,94.50
2017-12-27T05:23:25.583Z,94.40
2017-12-27T05:23:58.086Z,94.20
2017-12-27T05:24:31.421Z,93.80
2017-12-27T05:25:04.904Z,93.90
2017-12-27T05:25:38.185Z,93.90
2017-12-27T05:26:11.479Z,93.80
2017-12-27T05:26:44.001Z,93.80
2017-12-27T05:27:16.583Z,93.80
2017-12-27T05:27:49.099Z,93.90
2017-12-27T05:28:21.781Z,94.00
2017-12-27T05:28:54.497Z,94.10
2017-12-27T05:29:27.973Z,94.40
2017-12-27T05:30:00.575Z,94.40
2017-12-27T05:30:33.188Z,94.40
2017-12-27T05:31:05.987Z,94.40
2017-12-27T05:31:38.522Z,94.50
2017-12-27T05:32:11.854Z,94.50
2017-12-27T05:32:44.529Z,94.50
2017-12-27T05:33:17.572Z,94.40
2017-12-27T05:33:50.941Z,94.40
2017-12-27T05:34:23.446Z,94.40
2017-12-27T05:34:55.961Z,94.40
2017-12-27T05:35:29.347Z,94.40
2017-12-27T05:36:01.859Z,94.30
2017-12-27T05:36:34.471Z,94.40
2017-12-27T05:37:07.072Z,94.40
2017-12-27T05:37:39.633Z,94.40
2017-12-27T05:38:12.137Z,94.20
2017-12-27T05:38:44.729Z,94.20
2017-12-27T05:39:17.231Z,94.30
2017-12-27T05:39:49.825Z,94.30
2017-12-27T05:40:23.150Z,94.30
2017-12-27T05:40:56.501Z,94.40
2017-12-27T05:41:29.156Z,94.30
2017-12-27T05:42:01.717Z,94.30
2017-12-27T05:42:34.286Z,94.40
2017-12-27T05:43:08.056Z,94.50
2017-12-27T05:43:40.645Z,94.60
2017-12-27T05:44:13.796Z,94.70
2017-12-27T05:44:46.744Z,94.70
2017-12-27T05:45:20.022Z,94.70
2017-12-27T05:45:52.601Z,94.70
2017-12-27T05:46:25.297Z,94.60
2017-12-27T05:46:57.878Z,94.60
2017-12-27T05:47:30.445Z,94.60
2017-12-27T05:48:03.176Z,94.60
2017-12-27T05:48:35.848Z,94.60
2017-12-27T05:49:08.361Z,94.90
2017-12-27T05:49:40.990Z,94.60
2017-12-27T05:50:13.521Z,94.60
2017-12-27T05:50:46.114Z,94.60
2017-12-27T05:51:19.004Z,94.50
2017-12-27T05:51:51.605Z,94.50
2017-12-27T05:52:24.902Z,94.60
2017-12-27T05:52:57.615Z,94.50
2017-12-27T05:53:30.140Z,94.50
2017-12-27T05:54:02.656Z,94.50
2017-12-27T05:54:35.282Z,94.50
2017-12-27T05:55:07.802Z,94.40
2017-12-27T05:55:40.525Z,94.40
2017-12-27T05:56:13.105Z,94.40
2017-12-27T05:56:45.612Z,94.40
2017-12-27T05:57:18.188Z,94.40
2017-12-27T05:57:50.712Z,94.30
2017-12-27T05:58:23.400Z,94.40
2017-12-27T05:58:56.661Z,94.40
2017-12-27T05:59:29.503Z,94.60
2017-12-27T06:00:02.064Z,94.60
2017-12-27T06:00:34.598Z,94.60
2017-12-27T06:01:07.117Z,94.60
2017-12-27T06:01:39.683Z,94.60
2017-12-27T06:02:12.214Z,94.60
2017-12-27T06:02:44.949Z,94.60
2017-12-27T06:03:17.681Z,94.70
2017-12-27T06:03:50.232Z,94.70
2017-12-27T06:04:22.737Z,94.70
2017-12-27T06:04:55.273Z,94.70
2017-12-27T06:05:27.825Z,94.70
2017-12-27T06:06:00.400Z,94.70
2017-12-27T06:06:35.080Z,94.70
2017-12-27T06:07:07.643Z,94.70
2017-12-27T06:07:40.324Z,94.70
2017-12-27T06:08:12.929Z,94.60
2017-12-27T06:08:46.991Z,94.70
2017-12-27T06:09:19.721Z,94.70
2017-12-27T06:09:52.269Z,94.60
2017-12-27T06:10:24.760Z,94.70
2017-12-27T06:10:57.633Z,94.70
2017-12-27T06:11:32.260Z,94.70
2017-12-27T06:12:04.763Z,94.70
2017-12-27T06:12:38.078Z,95.00
2017-12-27T06:13:10.587Z,94.90
2017-12-27T06:13:43.287Z,95.00
2017-12-27T06:14:15.864Z,95.10
2017-12-27T06:14:48.429Z,94.90
2017-12-27T06:15:21.009Z,94.70
2017-12-27T06:15:53.604Z,94.60
2017-12-27T06:16:26.254Z,94.90
2017-12-27T06:16:58.802Z,94.50
2017-12-27T06:17:31.392Z,94.40
2017-12-27T06:18:03.994Z,94.30
2017-12-27T06:18:36.578Z,94.20
2017-12-27T06:19:09.141Z,94.00
2017-12-27T06:19:41.806Z,93.80
2017-12-27T06:20:14.300Z,94.00
2017-12-27T06:20:46.927Z,94.10
2017-12-27T06:21:20.200Z,94.20
2017-12-27T06:21:53.473Z,94.30
2017-12-27T06:22:25.968Z,94.30
2017-12-27T06:22:58.470Z,94.30
2017-12-27T06:23:30.979Z,94.30
2017-12-27T06:24:03.651Z,94.30
2017-12-27T06:24:36.259Z,94.30
2017-12-27T06:25:08.860Z,94.40
2017-12-27T06:25:42.233Z,94.40
2017-12-27T06:26:14.944Z,94.40
2017-12-27T06:26:47.704Z,94.40
2017-12-27T06:27:20.406Z,94.40
2017-12-27T06:27:53.841Z,94.40
2017-12-27T06:28:26.380Z,94.40
2017-12-27T06:28:58.897Z,94.50
2017-12-27T06:29:31.659Z,94.50
2017-12-27T06:30:04.224Z,94.40
2017-12-27T06:30:36.776Z,94.30
2017-12-27T06:31:09.358Z,94.30
2017-12-27T06:31:41.947Z,94.30
2017-12-27T06:32:15.325Z,94.30
2017-12-27T06:32:48.763Z,94.20
2017-12-27T06:33:22.226Z,94.20
2017-12-27T06:33:55.024Z,94.20
2017-12-27T06:34:27.589Z,94.20
2017-12-27T06:35:00.458Z,94.20
2017-12-27T06:35:33.001Z,94.40
2017-12-27T06:36:05.577Z,94.40
2017-12-27T06:36:38.882Z,94.50
2017-12-27T06:37:11.455Z,94.50
2017-12-27T06:37:44.105Z,94.40
2017-12-27T06:38:16.799Z,94.40
2017-12-27T06:38:49.396Z,94.50
2017-12-27T06:39:22.050Z,94.50
2017-12-27T06:39:54.546Z,94.50
2017-12-27T06:40:27.096Z,94.60
2017-12-27T06:40:59.695Z,94.60
2017-12-27T06:41:32.189Z,94.60
2017-12-27T06:42:04.753Z,94.70
2017-12-27T06:42:37.365Z,94.60
2017-12-27T06:43:09.861Z,94.50
2017-12-27T06:43:42.407Z,94.50
2017-12-27T06:44:14.936Z,94.40
2017-12-27T06:44:47.478Z,94.50
2017-12-27T06:45:19.993Z,94.80
2017-12-27T06:45:52.532Z,94.80
2017-12-27T06:46:25.055Z,94.70
2017-12-27T06:46:58.365Z,95.00
2017-12-27T06:47:30.859Z,94.70
2017-12-27T06:48:04.145Z,94.70
2017-12-27T06:48:36.638Z,94.70
2017-12-27T06:49:09.174Z,94.60
2017-12-27T06:49:41.750Z,94.60
2017-12-27T06:50:14.270Z,94.60
2017-12-27T06:50:46.795Z,94.70
2017-12-27T06:51:19.302Z,94.80
2017-12-27T06:51:51.920Z,94.80
2017-12-27T06:52:24.453Z,94.80
2017-12-27T06:52:57.020Z,94.70
2017-12-27T06:53:29.522Z,94.70
2017-12-27T06:54:02.017Z,94.70
2017-12-27T06:54:34.547Z,94.70
2017-12-27T06:55:07.113Z,94.70
2017-12-27T06:55:39.752Z,95.00
2017-12-27T06:56:12.305Z,94.60
2017-12-27T06:56:44.867Z,94.50
2017-12-27T06:57:17.507Z,94.50
2017-12-27T06:57:50.779Z,94.40
2017-12-27T06:58:23.265Z,94.30
2017-12-27T06:58:56.537Z,94.10
2017-12-27T06:59:29.058Z,94.10
2017-12-27T07:00:01.636Z,94.30
2017-12-27T07:00:34.251Z,94.30
2017-12-27T07:01:06.757Z,94.20
2017-12-27T07:01:39.348Z,94.10
2017-12-27T07:02:11.973Z,94.10
2017-12-27T07:02:44.583Z,94.20
2017-12-27T07:03:18.005Z,94.20
2017-12-27T07:03:50.593Z,94.20
2017-12-27T07:04:23.088Z,94.20
2017-12-27T07:04:55.701Z,94.30
2017-12-27T07:05:28.315Z,94.30
2017-12-27T07:06:00.815Z,94.50
2017-12-27T07:06:33.432Z,94.50
2017-12-27T07:07:05.974Z,94.50
2017-12-27T07:07:38.489Z,94.30
2017-12-27T07:08:11.238Z,94.30
2017-12-27T07:08:44.955Z,94.30
2017-12-27T07:09:17.530Z,94.40
2017-12-27T07:09:50.136Z,94.40
2017-12-27T07:10:22.821Z,94.40
2017-12-27T07:10:55.738Z,94.30
2017-12-27T07:11:29.338Z,94.30
2017-12-27T07:12:02.157Z,94.50
2017-12-27T07:12:34.729Z,94.40
2017-12-27T07:13:08.049Z,94.30
2017-12-27T07:13:40.644Z,94.30
2017-12-27T07:14:13.270Z,94.30
2017-12-27T07:14:45.831Z,94.30